.
WxDataArchive / Data Records for 2011-07-08
2011-07-07 July 2011 2011-07-09

Data Records for Friday, 08 July 2011

Time	Temp	Chill	HIndex	Humid	Dewpt	 Wind 	HiWind	WindDir	Rain 	Barom 
-----	----	-----	------	-----	-----	------	------	-------	-----	----- 
00:00	74.9	74.9	74.9	62	61.0	1	3	90	0.00	29.846 
00:05	74.9	74.9	74.9	62	61.0	1	3	90	0.00	29.846 
00:10	74.7	74.7	74.7	62	60.8	1	3	90	0.00	29.846 
00:15	74.6	74.6	74.6	62	60.7	2	5	90	0.00	29.846 
00:20	74.4	74.4	74.4	62	60.5	1	5	90	0.00	29.846 
00:25	74.4	74.4	74.4	62	60.5	0	1	90	0.00	29.846 
00:30	74.0	74.0	74.0	62	60.1	1	2	90	0.00	29.847 
00:35	74.0	74.0	74.0	63	60.6	0	1	90	0.00	29.847 
00:40	73.9	73.9	73.9	64	60.9	0	2	90	0.00	29.847 
00:45	73.7	73.7	73.7	64	60.7	0	0	---	0.00	29.849 
00:50	73.3	73.3	73.3	64	60.4	0	0	---	0.00	29.849 
00:55	73.3	73.3	73.3	64	60.4	0	1	90	0.00	29.849 
01:00	73.2	73.2	73.2	64	60.3	0	0	---	0.00	29.852 
01:05	73.2	73.2	73.2	64	60.3	0	1	90	0.00	29.852 
01:10	73.0	73.0	73.0	65	60.5	0	1	90	0.00	29.852 
01:15	73.0	73.0	73.0	64	60.1	0	1	90	0.00	29.845 
01:20	73.0	73.0	73.0	64	60.1	0	3	90	0.00	29.845 
01:25	72.8	72.8	72.8	64	59.9	0	2	90	0.00	29.845 
01:30	72.8	72.8	72.8	64	59.9	1	3	90	0.00	29.838 
01:35	72.8	72.8	72.8	64	59.9	0	0	---	0.00	29.838 
01:40	72.7	72.7	72.7	64	59.8	0	1	90	0.00	29.838 
01:45	72.5	72.5	72.5	65	60.0	0	0	---	0.00	29.832 
01:50	72.3	72.3	72.3	65	59.9	0	3	90	0.00	29.832 
01:55	72.3	72.3	72.3	65	59.9	1	2	90	0.00	29.832 
02:00	72.3	72.3	72.3	64	59.4	1	3	90	0.00	29.828 
02:05	72.3	72.3	72.3	64	59.4	0	2	90	0.00	29.828 
02:10	72.1	72.1	72.1	65	59.7	0	2	90	0.00	29.828 
02:15	72.0	72.0	72.0	65	59.6	0	2	90	0.00	29.818 
02:20	71.8	71.8	71.8	65	59.4	0	2	90	0.00	29.818 
02:25	71.6	71.6	71.6	65	59.2	0	3	90	0.00	29.818 
02:30	71.5	71.5	71.5	65	59.1	0	0	---	0.00	29.826 
02:35	71.3	71.3	71.3	66	59.3	0	0	---	0.00	29.826 
02:40	70.9	70.9	70.9	66	59.0	0	0	---	0.00	29.826 
02:45	70.8	70.8	70.8	67	59.3	0	0	---	0.00	29.824 
02:50	70.4	70.4	70.4	68	59.3	0	0	---	0.00	29.824 
02:55	70.4	70.4	70.4	69	59.7	0	0	---	0.00	29.824 
03:00	70.3	70.3	70.3	70	60.0	0	0	---	0.00	29.819 
03:05	70.1	70.1	70.1	70	59.8	0	0	---	0.00	29.819 
03:10	69.8	69.8	69.8	70	59.6	0	0	---	0.00	29.819 
03:15	69.6	69.6	69.6	71	59.8	0	0	---	0.00	29.817 
03:20	69.4	69.4	69.4	72	60.0	0	0	---	0.00	29.817 
03:25	69.3	69.3	69.3	73	60.3	0	0	---	0.00	29.817 
03:30	69.1	69.1	69.1	73	60.1	0	0	---	0.00	29.817 
03:35	69.1	69.1	69.1	73	60.1	0	0	---	0.00	29.817 
03:40	68.9	68.9	68.9	73	59.9	0	0	---	0.00	29.817 
03:45	68.8	68.8	68.8	74	60.2	0	0	---	0.00	29.810 
03:50	68.6	68.6	68.6	74	60.0	0	0	---	0.00	29.810 
03:55	68.4	68.4	68.4	75	60.2	0	0	---	0.00	29.810 
04:00	68.3	68.3	68.3	75	60.1	0	0	---	0.00	29.806 
04:05	68.1	68.1	68.1	75	59.9	0	0	---	0.00	29.806 
04:10	68.1	68.1	68.1	76	60.2	0	0	---	0.00	29.806 
04:15	67.9	67.9	67.9	77	60.4	0	0	---	0.00	29.813 
04:20	67.8	67.8	67.8	77	60.3	0	0	---	0.00	29.813 
04:25	67.8	67.8	67.8	77	60.3	0	0	---	0.00	29.813 
04:30	67.6	67.6	67.6	77	60.1	0	0	---	0.00	29.819 
04:35	67.6	67.6	67.6	77	60.1	0	0	---	0.00	29.819 
04:40	67.6	67.6	67.6	77	60.1	0	1	90	0.00	29.819 
04:45	67.6	67.6	67.6	77	60.1	0	0	---	0.00	29.822 
04:50	67.4	67.4	67.4	77	59.9	0	0	---	0.00	29.822 
04:55	67.4	67.4	67.4	77	59.9	0	0	---	0.00	29.822 
05:00	67.3	67.3	67.3	78	60.2	0	0	---	0.00	29.820 
05:05	67.3	67.3	67.3	78	60.2	0	0	---	0.00	29.820 
05:10	67.1	67.1	67.1	78	60.0	0	0	---	0.00	29.820 
05:15	67.1	67.1	67.1	79	60.4	0	0	---	0.00	29.825 
05:20	67.1	67.1	67.1	79	60.4	0	0	---	0.00	29.825 
05:25	67.1	67.1	67.1	79	60.4	0	0	---	0.00	29.825 
05:30	66.9	66.9	66.9	79	60.2	0	0	---	0.00	29.827 
05:35	66.9	66.9	66.9	80	60.5	0	0	---	0.00	29.827 
05:40	66.9	66.9	66.9	80	60.5	0	0	---	0.00	29.827 
05:45	66.9	66.9	66.9	80	60.5	0	0	---	0.00	29.824 
05:50	66.9	66.9	66.9	80	60.5	0	0	---	0.00	29.824 
05:55	66.8	66.8	66.8	80	60.4	0	0	---	0.00	29.824 
06:00	66.8	66.8	66.8	80	60.4	0	0	---	0.00	29.826 
06:05	66.6	66.6	66.6	80	60.2	0	0	---	0.00	29.826 
06:10	66.6	66.6	66.6	80	60.2	0	0	---	0.00	29.826 
06:15	66.4	66.4	66.4	81	60.4	0	0	---	0.00	29.824 
06:20	66.3	66.3	66.3	81	60.3	0	0	---	0.00	29.824 
06:25	66.1	66.1	66.1	82	60.4	0	0	---	0.00	29.824 
06:30	66.1	66.1	66.1	83	60.8	0	0	---	0.00	29.820 
06:35	66.0	66.0	66.0	83	60.7	0	0	---	0.00	29.820 
06:40	66.0	66.0	66.0	83	60.7	0	0	---	0.00	29.820 
06:45	66.0	66.0	66.0	84	61.0	0	0	---	0.00	29.819 
06:50	66.0	66.0	66.0	84	61.0	0	0	---	0.00	29.819 
06:55	66.0	66.0	66.0	84	61.0	0	0	---	0.00	29.819 
07:00	66.1	66.1	66.1	83	60.8	0	0	---	0.00	29.819 
07:05	66.1	66.1	66.1	84	61.1	0	0	---	0.00	29.819 
07:10	66.4	66.4	66.4	84	61.4	0	0	---	0.00	29.819 
07:15	66.6	66.6	66.6	84	61.6	0	1	90	0.00	29.815 
07:20	66.8	66.8	66.8	84	61.8	0	2	90	0.00	29.815 
07:25	67.3	67.3	67.3	83	62.0	0	2	90	0.00	29.815 
07:30	67.8	67.8	67.8	81	61.7	0	2	90	0.00	29.817 
07:35	68.6	68.6	68.6	80	62.2	1	4	90	0.00	29.817 
07:40	69.1	69.1	69.1	78	61.9	2	5	90	0.00	29.817 
07:45	69.6	69.6	69.6	78	62.4	2	5	90	0.00	29.820 
07:50	69.9	69.9	69.9	77	62.3	1	4	90	0.00	29.820 
07:55	70.3	70.3	70.3	77	62.7	2	5	112	0.00	29.820 
08:00	70.8	70.8	70.8	77	63.2	0	3	112	0.00	29.820 
08:05	71.1	71.1	71.1	76	63.1	1	3	90	0.00	29.820 
08:10	71.6	71.6	71.6	75	63.2	1	4	90	0.00	29.820 
08:15	71.8	71.8	71.8	74	63.1	1	5	90	0.00	29.819 
08:20	72.1	72.1	72.1	74	63.3	1	3	90	0.00	29.819 
08:25	72.3	72.3	72.3	73	63.1	2	5	90	0.00	29.819 
08:30	72.5	72.5	72.5	73	63.3	1	5	90	0.00	29.820 
08:35	72.3	72.3	72.3	73	63.1	2	6	90	0.00	29.820 
08:40	72.7	72.7	72.7	72	63.1	1	5	112	0.00	29.820 
08:45	73.0	73.0	73.0	72	63.4	2	6	112	0.00	29.819 
08:50	73.0	73.0	73.0	72	63.4	2	6	90	0.00	29.819 
08:55	73.2	73.2	73.2	72	63.6	2	6	90	0.00	29.819 
09:00	73.5	73.5	73.5	70	63.1	2	5	90	0.00	29.818 
09:05	73.9	73.9	73.9	71	63.9	1	5	90	0.00	29.818 
09:10	74.4	74.4	74.4	70	64.0	1	4	112	0.00	29.818 
09:15	74.6	74.6	74.6	68	63.3	1	4	112	0.00	29.820 
09:20	74.7	74.7	74.7	68	63.4	2	4	112	0.00	29.820 
09:25	75.1	75.1	76.9	68	63.8	1	4	68	0.00	29.820 
09:30	75.4	75.4	77.3	67	63.7	1	5	90	0.00	29.824 
09:35	76.0	76.0	77.8	67	64.2	0	3	90	0.00	29.824 
09:40	76.3	76.3	78.1	65	63.6	1	4	90	0.00	29.824 
09:45	76.5	76.5	78.3	65	63.8	1	4	90	0.00	29.826 
09:50	76.8	76.8	78.6	64	63.7	2	6	90	0.00	29.826 
09:55	77.0	77.0	78.8	67	65.2	1	5	90	0.00	29.826 
10:00	77.6	77.6	79.4	63	64.0	1	3	90	0.00	29.820 
10:05	77.7	77.7	79.5	63	64.1	1	4	90	0.00	29.820 
10:10	78.1	78.1	79.9	63	64.5	1	3	90	0.00	29.820 
10:15	78.3	78.3	80.1	63	64.6	1	5	90	0.00	29.819 
10:20	78.5	78.5	80.3	62	64.4	1	3	90	0.00	29.819 
10:25	78.8	78.8	80.5	61	64.2	2	4	90	0.00	29.819 
10:30	78.6	78.6	80.3	60	63.5	2	4	112	0.00	29.817 
10:35	79.2	79.2	81.1	62	65.0	0	2	112	0.00	29.817 
10:40	79.8	79.8	81.6	60	64.7	1	4	112	0.00	29.817 
10:45	80.1	80.1	81.7	58	64.0	1	4	112	0.00	29.815 
10:50	79.8	79.8	81.5	59	64.2	2	6	112	0.00	29.815 
10:55	79.8	79.8	81.6	60	64.7	2	6	90	0.00	29.815 
11:00	79.9	79.9	81.6	59	64.3	1	6	90	0.00	29.815 
11:05	80.3	80.3	81.8	57	63.7	1	3	112	0.00	29.815 
11:10	80.9	80.9	82.5	57	64.2	2	7	112	0.00	29.815 
11:15	81.1	81.1	82.5	55	63.4	3	6	90	0.00	29.818 
11:20	80.9	80.9	82.4	56	63.7	3	6	90	0.00	29.818 
11:25	81.1	81.1	82.8	57	64.4	2	5	112	0.00	29.818 
11:30	81.6	81.6	83.1	55	63.8	1	4	90	0.00	29.819 
11:35	82.2	82.2	83.5	53	63.3	2	7	90	0.00	29.819 
11:40	82.0	82.0	83.6	55	64.2	3	7	112	0.00	29.819 
11:45	82.0	82.0	83.4	54	63.7	3	7	112	0.00	29.818 
11:50	82.2	82.2	83.8	55	64.4	3	6	112	0.00	29.818 
11:55	82.4	82.4	84.1	55	64.6	2	6	112	0.00	29.818 
12:00	82.8	82.8	84.2	53	63.9	2	5	112	0.00	29.815 
12:05	82.8	82.8	84.0	52	63.3	1	6	135	0.00	29.815 
12:10	83.0	83.0	84.7	54	64.6	2	5	112	0.00	29.815 
12:15	83.6	83.6	85.7	55	65.7	2	9	112	0.00	29.816 
12:20	83.6	83.6	84.6	50	63.0	2	10	90	0.00	29.816 
12:25	83.4	83.4	84.6	51	63.3	1	5	90	0.00	29.816 
12:30	83.4	83.4	84.6	51	63.3	2	5	112	0.00	29.815 
12:35	83.4	83.4	84.4	50	62.8	3	7	90	0.00	29.815 
12:40	83.8	83.8	84.9	50	63.1	1	5	90	0.00	29.815 
12:45	84.3	84.3	85.3	49	63.0	1	5	112	0.00	29.814 
12:50	84.5	84.5	85.3	48	62.6	2	9	90	0.00	29.814 
12:55	84.9	84.9	85.6	47	62.4	2	6	90	0.00	29.814 
13:00	85.1	85.1	86.1	48	63.2	2	7	112	0.00	29.811 
13:05	85.1	85.1	85.9	47	62.6	2	7	112	0.00	29.811 
13:10	85.1	85.1	85.4	45	61.3	2	6	90	0.00	29.811 
13:15	85.1	85.1	85.0	43	60.1	2	8	135	0.00	29.811 
13:20	84.5	84.5	84.3	43	59.5	4	10	90	0.00	29.811 
13:25	84.7	84.7	85.2	46	61.6	2	9	68	0.00	29.811 
13:30	85.1	85.1	84.6	41	58.7	4	7	90	0.00	29.807 
13:35	85.1	85.1	85.2	44	60.7	4	7	112	0.00	29.807 
13:40	85.3	85.3	85.2	43	60.2	2	7	90	0.00	29.807 
13:45	85.5	85.5	85.1	41	59.1	4	9	90	0.00	29.801 
13:50	85.5	85.5	84.9	40	58.4	2	5	112	0.00	29.801 
13:55	85.9	85.9	85.5	41	59.4	2	6	112	0.00	29.801 
14:00	86.1	86.1	85.6	40	58.9	2	6	112	0.00	29.796 
14:05	86.5	86.5	86.0	40	59.3	2	7	90	0.00	29.796 
14:10	86.5	86.5	85.8	39	58.6	3	10	90	0.00	29.796 
14:15	86.7	86.7	86.0	39	58.7	1	4	68	0.00	29.793 
14:20	87.0	87.0	86.4	39	59.0	2	6	90	0.00	29.793 
14:25	86.7	86.7	86.0	39	58.7	3	9	90	0.00	29.793 
14:30	87.0	87.0	86.6	40	59.7	1	4	90	0.00	29.794 
14:35	87.2	87.2	86.6	39	59.2	2	6	90	0.00	29.794 
14:40	87.6	87.6	87.1	39	59.5	0	3	112	0.00	29.794 
14:45	87.4	87.4	86.9	39	59.4	3	7	90	0.00	29.791 
14:50	87.4	87.4	86.9	39	59.4	1	5	112	0.00	29.791 
14:55	87.6	87.6	86.2	35	56.5	2	5	112	0.00	29.791 
15:00	87.8	87.8	86.9	37	58.2	1	9	90	0.00	29.787 
15:05	87.8	87.8	86.5	35	56.7	2	10	90	0.00	29.787 
15:10	88.0	88.0	86.5	34	56.1	2	5	90	0.00	29.787 
15:15	88.0	88.0	86.5	34	56.1	3	10	112	0.00	29.789 
15:20	87.6	87.6	86.4	36	57.3	2	5	90	0.00	29.789 
15:25	88.0	88.0	86.7	35	56.9	1	4	90	0.00	29.789 
15:30	87.8	87.8	86.3	34	55.9	3	7	135	0.00	29.788 
15:35	87.6	87.6	86.2	35	56.5	2	5	90	0.00	29.788 
15:40	87.6	87.6	86.0	34	55.7	2	6	135	0.00	29.788 
15:45	87.8	87.8	87.4	39	59.7	2	7	90	0.00	29.785 
15:50	88.2	88.2	86.9	35	57.0	1	5	112	0.00	29.785 
15:55	88.2	88.2	87.4	37	58.6	1	5	248	0.00	29.785 
16:00	88.2	88.2	86.7	34	56.2	3	6	112	0.00	29.785 
16:05	88.2	88.2	87.6	38	59.3	1	3	112	0.00	29.785 
16:10	88.8	88.8	87.6	35	57.6	2	9	90	0.00	29.785 
16:15	88.4	88.4	87.6	37	58.8	1	4	90	0.00	29.787 
16:20	88.2	88.2	87.6	38	59.3	0	3	90	0.00	29.787 
16:25	88.0	88.0	87.1	37	58.4	1	3	112	0.00	29.787 
16:30	87.0	87.0	86.0	37	57.5	1	5	90	0.00	29.787 
16:35	86.7	86.7	85.6	37	57.3	0	2	90	0.00	29.787 
16:40	87.4	87.4	86.0	35	56.3	2	7	90	0.00	29.787 
16:45	88.2	88.2	87.4	37	58.6	1	4	68	0.00	29.787 
16:50	88.8	88.8	88.1	37	59.1	0	2	68	0.00	29.787 
16:55	89.3	89.3	88.3	35	58.0	1	5	135	0.00	29.787 
17:00	89.0	89.0	87.9	35	57.7	2	9	90	0.00	29.786 
17:05	89.0	89.0	87.9	35	57.7	2	5	112	0.00	29.786 
17:10	88.8	88.8	87.2	33	55.9	1	4	112	0.00	29.786 
17:15	88.6	88.6	87.2	34	56.6	0	1	112	0.00	29.788 
17:20	88.8	88.8	87.4	34	56.8	1	3	112	0.00	29.788 
17:25	88.8	88.8	87.6	35	57.6	1	5	225	0.00	29.788 
17:30	88.4	88.4	86.7	33	55.6	2	6	90	0.00	29.792 
17:35	88.0	88.0	86.5	34	56.1	0	2	112	0.00	29.792 
17:40	88.0	88.0	86.5	34	56.1	2	5	112	0.00	29.792 
17:45	88.0	88.0	86.7	35	56.9	1	4	112	0.00	29.793 
17:50	88.0	88.0	86.7	35	56.9	1	3	112	0.00	29.793 
17:55	87.6	87.6	86.4	36	57.3	0	1	112	0.00	29.793 
18:00	86.5	86.5	85.0	35	55.6	0	2	112	0.00	29.795 
18:05	86.1	86.1	84.8	36	56.0	1	3	112	0.00	29.795 
18:10	86.1	86.1	84.8	36	56.0	0	2	112	0.00	29.795 
18:15	86.1	86.1	84.8	36	56.0	0	2	112	0.00	29.798 
18:20	86.3	86.3	85.2	37	56.9	1	5	112	0.00	29.798 
18:25	86.5	86.5	85.4	37	57.1	0	3	112	0.00	29.798 
18:30	86.3	86.3	85.0	36	56.2	0	1	112	0.00	29.802 
18:35	86.1	86.1	85.0	37	56.7	0	2	112	0.00	29.802 
18:40	86.1	86.1	84.8	36	56.0	0	1	112	0.00	29.802 
18:45	85.7	85.7	84.5	37	56.4	0	2	112	0.00	29.804 
18:50	85.5	85.5	84.5	38	57.0	1	4	112	0.00	29.804 
18:55	85.5	85.5	84.5	38	57.0	1	4	68	0.00	29.804 
19:00	85.5	85.5	84.2	36	55.5	0	1	68	0.00	29.803 
19:05	85.3	85.3	84.1	37	56.0	1	3	68	0.00	29.803 
19:10	84.9	84.9	83.9	38	56.4	1	4	135	0.00	29.803 
19:15	84.9	84.9	83.7	37	55.7	0	2	90	0.00	29.803 
19:20	84.5	84.5	83.5	38	56.1	1	3	90	0.00	29.803 
19:25	84.3	84.3	83.6	40	57.3	0	2	90	0.00	29.803 
19:30	84.1	84.1	83.4	40	57.1	0	3	90	0.00	29.803 
19:35	84.0	84.0	83.3	40	57.0	0	2	90	0.00	29.803 
19:40	84.0	84.0	83.3	40	57.0	0	2	90	0.00	29.803 
19:45	84.0	84.0	83.1	39	56.3	0	2	90	0.00	29.804 
19:50	84.0	84.0	83.1	39	56.3	0	3	90	0.00	29.804 
19:55	83.8	83.8	83.2	41	57.6	0	2	112	0.00	29.804 
20:00	83.8	83.8	83.1	40	56.9	0	2	90	0.00	29.805 
20:05	83.6	83.6	82.9	40	56.7	1	2	90	0.00	29.805 
20:10	83.6	83.6	82.8	39	56.0	0	1	90	0.00	29.805 
20:15	83.4	83.4	82.6	39	55.8	0	1	90	0.00	29.812 
20:20	83.2	83.2	82.4	39	55.6	0	0	---	0.00	29.812 
20:25	83.2	83.2	82.5	40	56.3	0	1	90	0.00	29.812 
20:30	83.0	83.0	82.3	40	56.2	0	0	---	0.00	29.818 
20:35	82.8	82.8	82.2	40	56.0	0	0	---	0.00	29.818 
20:40	82.6	82.6	82.1	41	56.5	0	1	90	0.00	29.818 
20:45	82.2	82.2	81.7	41	56.1	0	0	---	0.00	29.822 
20:50	82.0	82.0	81.6	41	55.9	0	0	---	0.00	29.822 
20:55	81.6	81.6	81.3	42	56.3	0	0	---	0.00	29.822 
21:00	81.2	81.2	81.0	42	55.9	0	0	---	0.00	29.828 
21:05	80.9	80.9	80.8	42	55.6	0	0	---	0.00	29.828 
21:10	80.5	80.5	80.6	43	55.9	0	0	---	0.00	29.828 
21:15	80.1	80.1	80.3	43	55.6	0	0	---	0.00	29.827 
21:20	79.8	79.8	80.0	43	55.3	0	0	---	0.00	29.827 
21:25	79.4	79.4	79.8	44	55.6	0	0	---	0.00	29.827 
21:30	79.0	79.0	79.6	45	55.8	0	0	---	0.00	29.832 
21:35	78.5	78.5	79.4	46	56.0	0	0	---	0.00	29.832 
21:40	78.1	78.1	79.1	46	55.6	0	0	---	0.00	29.832 
21:45	77.7	77.7	78.9	47	55.8	0	0	---	0.00	29.833 
21:50	77.4	77.4	78.8	48	56.1	0	0	---	0.00	29.833 
21:55	76.8	76.8	78.5	49	56.2	0	0	---	0.00	29.833 
22:00	76.5	76.5	78.3	50	56.5	0	0	---	0.00	29.837 
22:05	76.1	76.1	78.1	50	56.1	0	0	---	0.00	29.837 
22:10	75.8	75.8	78.0	51	56.4	0	0	---	0.00	29.837 
22:15	75.4	75.4	77.8	54	57.6	0	1	90	0.00	29.842 
22:20	75.1	75.1	77.6	55	57.8	0	1	90	0.00	29.842 
22:25	74.9	74.9	74.9	55	57.6	0	0	---	0.00	29.842 
22:30	74.6	74.6	74.6	56	57.8	0	0	---	0.00	29.849 
22:35	74.2	74.2	74.2	56	57.5	0	0	---	0.00	29.849 
22:40	74.0	74.0	74.0	57	57.8	0	0	---	0.00	29.849 
22:45	73.7	73.7	73.7	58	58.0	0	0	---	0.00	29.851 
22:50	73.5	73.5	73.5	59	58.3	0	0	---	0.00	29.851 
22:55	73.3	73.3	73.3	60	58.6	0	0	---	0.00	29.851 
23:00	73.0	73.0	73.0	60	58.3	0	0	---	0.00	29.856 
23:05	72.8	72.8	72.8	61	58.6	0	0	---	0.00	29.856 
23:10	72.5	72.5	72.5	60	57.8	0	0	---	0.00	29.856 
23:15	72.3	72.3	72.3	61	58.1	0	0	---	0.00	29.857 
23:20	72.1	72.1	72.1	62	58.3	0	0	---	0.00	29.857 
23:25	71.8	71.8	71.8	61	57.6	0	0	---	0.00	29.857 
23:30	71.6	71.6	71.6	61	57.4	0	0	---	0.00	29.859 
23:35	71.5	71.5	71.5	61	57.3	0	0	---	0.00	29.859 
23:40	71.3	71.3	71.3	61	57.1	0	0	---	0.00	29.859 
23:45	71.3	71.3	71.3	62	57.6	0	0	---	0.00	29.858 
23:50	71.1	71.1	71.1	62	57.4	0	0	---	0.00	29.858 
23:55	70.9	70.9	70.9	62	57.2	0	0	---	0.00	29.858 

CoCoRaHS
IN-AL-39
A2 Web Hosting
Creative Commons License
GoDaddy
search engine by freefind advanced

loaded 2018-11-16 11:49:12 • last modified 2010-11-18 10:43:29
Privacy PolicyDisclaimer
• wx.awcolley.com is powered by PmWiki v.2002016 •
• all content (unless otherwise noted) © 2018 A W Colley